»·PEaware :: N169BK KAJO-KVCV

N169BK :: KAJO-KVCV

FLIGHT INFORMATION

Flight Status: Arrived
Operator: Privately registered:
United States
More flights under this callsign
Pilot: Steve K. (28058)
Aircraft: CESSNA 172 SKYHAWK
(C172)
More flights by this aircraft type
Origin: KAJO Corona Mun
United States
Destination: KVCV Socal Logistics
United States
More flights between these airports :: More routes between these airports
Route: PDZ V442 APLES
File this flight plan on PilotEdge
Remarks:
Altitude:
(Current/Filed)
9,000ft
Speed:
(Current/Filed)
120kts
Departed: 24-Nov-20 06:08 PM
Arrived: 24-Nov-20 07:21 PM
Distance/Time
Traveled:
43nm/1:13
Distance/Time
To Go:
Arrived

Flight Plot

Page will automatically refresh every two minutes.


Map Options




Map Legend


Flown Route
Filed Route
Departure Airport
Arrival Airport
Navaid (VOR, NDB)
Fix

Horizontal Profiles

Position Reports

Time Latitude Longitude Heading Altitude Ground
Speed
24-Nov-20 17:59 33.896978 -117.607296 180 537ft 0kts
24-Nov-20 18:00 33.896978 -117.607296 180 537ft 0kts
24-Nov-20 18:01 33.896978 -117.607296 180 537ft 0kts
24-Nov-20 18:02 33.896978 -117.607296 180 537ft 0kts
24-Nov-20 18:04 33.897069 -117.607004 62 537ft 6kts
24-Nov-20 18:05 33.897290 -117.601325 86 537ft 23kts
24-Nov-20 18:06 33.897308 -117.597613 2 537ft 0kts
24-Nov-20 18:07 33.897308 -117.597613 2 537ft 0kts
24-Nov-20 18:08 33.897720 -117.602367 268 537ft 75kts
24-Nov-20 18:09 33.896292 -117.629305 277 1248ft 81kts
24-Nov-20 18:10 33.912519 -117.650365 349 1907ft 103kts
24-Nov-20 18:11 33.929130 -117.626931 91 2522ft 108kts
24-Nov-20 18:12 33.925216 -117.591232 100 3194ft 107kts
24-Nov-20 18:13 33.918630 -117.556384 99 3874ft 106kts
24-Nov-20 18:14 33.926193 -117.526089 31 4588ft 103kts
24-Nov-20 18:15 33.950686 -117.509112 62 5245ft 106kts
24-Nov-20 18:16 33.934003 -117.490896 207 5818ft 108kts
24-Nov-20 18:17 33.919469 -117.520572 263 6458ft 105kts
24-Nov-20 18:18 33.940317 -117.530333 38 7038ft 105kts
24-Nov-20 18:19 33.960622 -117.506156 65 7695ft 102kts
24-Nov-20 18:20 33.943913 -117.489985 211 8275ft 103kts
24-Nov-20 18:21 33.927186 -117.516617 235 8934ft 97kts
24-Nov-20 18:21 33.937236 -117.539865 352 8979ft 124kts
24-Nov-20 18:23 33.969211 -117.509967 43 8996ft 130kts
24-Nov-20 18:23 33.992024 -117.486622 30 8997ft 131kts
24-Nov-20 18:24 34.023714 -117.465039 21 8997ft 131kts
24-Nov-20 18:26 34.062327 -117.443527 23 8996ft 131kts
24-Nov-20 18:26 34.089623 -117.427317 24 8996ft 131kts
24-Nov-20 18:27 34.122019 -117.407327 28 8999ft 131kts
24-Nov-20 18:28 34.154480 -117.387208 26 9000ft 131kts
24-Nov-20 18:29 34.187206 -117.367440 26 9000ft 131kts
24-Nov-20 18:30 34.219823 -117.347732 26 9000ft 131kts
24-Nov-20 18:31 34.252491 -117.327975 26 9000ft 131kts
24-Nov-20 18:32 34.285241 -117.308153 26 9000ft 131kts
24-Nov-20 18:33 34.317858 -117.288394 26 9000ft 131kts
24-Nov-20 18:34 34.350618 -117.268531 26 9000ft 131kts
24-Nov-20 18:35 34.383214 -117.248750 26 9000ft 131kts
24-Nov-20 18:36 34.415982 -117.228846 26 9000ft 131kts
24-Nov-20 18:37 34.448555 -117.209045 26 9000ft 131kts
24-Nov-20 18:38 34.481281 -117.189132 26 9000ft 131kts
24-Nov-20 18:39 34.514006 -117.169203 26 9000ft 131kts
24-Nov-20 18:40 34.545862 -117.148718 2 8972ft 133kts
24-Nov-20 18:41 34.582648 -117.154644 12 8438ft 136kts
24-Nov-20 18:42 34.619493 -117.147334 1 7934ft 133kts
24-Nov-20 18:43 34.656003 -117.152253 343 7430ft 132kts
24-Nov-20 18:44 34.689947 -117.169425 330 6927ft 132kts
24-Nov-20 18:45 34.719702 -117.194422 320 6598ft 123kts
24-Nov-20 18:46 34.743829 -117.221514 313 6599ft 115kts
24-Nov-20 18:47 34.764018 -117.251696 307 6599ft 115kts
24-Nov-20 18:48 34.779186 -117.286564 283 6404ft 127kts
24-Nov-20 18:49 34.789216 -117.330298 282 5709ft 137kts
24-Nov-20 18:50 34.781590 -117.372241 223 5066ft 132kts
24-Nov-20 18:51 34.748573 -117.381509 169 4546ft 128kts
24-Nov-20 18:52 34.715295 -117.380988 182 4300ft 100kts
24-Nov-20 18:53 34.686992 -117.382929 183 3827ft 107kts
24-Nov-20 18:54 34.660473 -117.384619 183 3397ft 79kts
24-Nov-20 18:55 34.639815 -117.386249 183 3424ft 87kts
24-Nov-20 18:56 34.615144 -117.388330 183 4062ft 91kts
24-Nov-20 18:57 34.589015 -117.390687 184 4866ft 97kts
24-Nov-20 18:58 34.570823 -117.406638 283 5648ft 98kts
24-Nov-20 18:59 34.594564 -117.426684 323 6002ft 124kts
24-Nov-20 19:00 34.609056 -117.466017 289 6000ft 132kts
24-Nov-20 19:01 34.617220 -117.509744 282 6000ft 133kts
24-Nov-20 19:02 34.625528 -117.553618 283 5999ft 133kts
24-Nov-20 19:03 34.633921 -117.597304 283 5999ft 133kts
24-Nov-20 19:04 34.642276 -117.640815 283 5999ft 129kts
24-Nov-20 19:05 34.656659 -117.679072 327 5994ft 127kts
24-Nov-20 19:06 34.685861 -117.695201 16 5999ft 118kts
24-Nov-20 19:07 34.701713 -117.663950 99 5999ft 117kts
24-Nov-20 19:08 34.684493 -117.630959 126 5993ft 117kts
24-Nov-20 19:09 34.668465 -117.592428 115 5475ft 131kts
24-Nov-20 19:10 34.653534 -117.551976 100 5008ft 129kts
24-Nov-20 19:11 34.647001 -117.512407 113 4999ft 116kts
24-Nov-20 19:12 34.633050 -117.474761 114 4600ft 134kts
24-Nov-20 19:13 34.609332 -117.441540 132 3903ft 123kts
24-Nov-20 19:14 34.607985 -117.408918 50 3899ft 102kts
24-Nov-20 19:15 34.624990 -117.385427 46 3898ft 84kts
24-Nov-20 19:16 34.640738 -117.364881 46 3900ft 82kts
24-Nov-20 19:17 34.639302 -117.341301 155 3695ft 75kts
24-Nov-20 19:18 34.621018 -117.347533 193 3477ft 77kts
24-Nov-20 19:19 34.604305 -117.362210 221 3035ft 74kts
24-Nov-20 19:20 34.594933 -117.372825 182 2888ft 16kts
24-Nov-20 19:21 34.593555 -117.372715 183 2888ft 12kts
24-Nov-20 19:22 34.589358 -117.374788 191 2888ft 19kts

Navigation Log

Ident Type
Flight plan parsing failed, navigation log unavailable